sensor_id;sensor_type;location;lat;lon;timestamp;P1;durP1;ratioP1;P2;durP2;ratioP2
31347;SDS011;21711;49.708;18.568;2023-07-20T00:02:10;5.55;;;3.15;;
31347;SDS011;21711;49.708;18.568;2023-07-20T00:04:38;6.63;;;3.58;;
31347;SDS011;21711;49.708;18.568;2023-07-20T00:07:05;6.30;;;3.45;;
31347;SDS011;21711;49.708;18.568;2023-07-20T00:09:32;7.07;;;3.78;;
31347;SDS011;21711;49.708;18.568;2023-07-20T00:12:00;8.27;;;3.53;;
31347;SDS011;21711;49.708;18.568;2023-07-20T00:14:27;4.45;;;2.75;;
31347;SDS011;21711;49.708;18.568;2023-07-20T00:16:55;5.43;;;3.22;;
31347;SDS011;21711;49.708;18.568;2023-07-20T00:19:23;5.00;;;2.83;;
31347;SDS011;21711;49.708;18.568;2023-07-20T00:21:53;6.10;;;3.20;;
31347;SDS011;21711;49.708;18.568;2023-07-20T00:24:21;5.53;;;2.85;;
31347;SDS011;21711;49.708;18.568;2023-07-20T00:26:48;4.57;;;2.83;;
31347;SDS011;21711;49.708;18.568;2023-07-20T00:29:16;9.95;;;3.90;;
31347;SDS011;21711;49.708;18.568;2023-07-20T00:31:45;6.97;;;2.92;;
31347;SDS011;21711;49.708;18.568;2023-07-20T00:34:14;6.05;;;2.88;;
31347;SDS011;21711;49.708;18.568;2023-07-20T00:36:41;6.60;;;3.00;;
31347;SDS011;21711;49.708;18.568;2023-07-20T00:39:09;10.27;;;3.30;;
31347;SDS011;21711;49.708;18.568;2023-07-20T00:41:36;8.38;;;3.13;;
31347;SDS011;21711;49.708;18.568;2023-07-20T00:44:04;7.28;;;3.40;;
31347;SDS011;21711;49.708;18.568;2023-07-20T00:46:32;6.78;;;2.88;;
31347;SDS011;21711;49.708;18.568;2023-07-20T00:49:00;5.57;;;2.95;;
31347;SDS011;21711;49.708;18.568;2023-07-20T00:51:28;4.68;;;3.30;;
31347;SDS011;21711;49.708;18.568;2023-07-20T00:53:56;7.47;;;3.33;;
31347;SDS011;21711;49.708;18.568;2023-07-20T00:56:23;7.03;;;3.55;;
31347;SDS011;21711;49.708;18.568;2023-07-20T00:58:51;8.50;;;3.28;;
31347;SDS011;21711;49.708;18.568;2023-07-20T01:01:20;10.05;;;3.40;;
31347;SDS011;21711;49.708;18.568;2023-07-20T01:03:48;5.20;;;2.97;;
31347;SDS011;21711;49.708;18.568;2023-07-20T01:09:11;6.57;;;3.50;;
31347;SDS011;21711;49.708;18.568;2023-07-20T01:11:54;7.38;;;3.60;;
31347;SDS011;21711;49.708;18.568;2023-07-20T01:14:40;7.07;;;3.10;;
31347;SDS011;21711;49.708;18.568;2023-07-20T01:17:08;6.65;;;2.60;;
31347;SDS011;21711;49.708;18.568;2023-07-20T01:19:35;7.95;;;3.08;;
31347;SDS011;21711;49.708;18.568;2023-07-20T01:22:03;6.22;;;3.22;;
31347;SDS011;21711;49.708;18.568;2023-07-20T01:27:54;6.25;;;3.08;;
31347;SDS011;21711;49.708;18.568;2023-07-20T01:30:59;10.18;;;3.35;;
31347;SDS011;21711;49.708;18.568;2023-07-20T01:34:05;6.13;;;3.08;;
31347;SDS011;21711;49.708;18.568;2023-07-20T01:36:36;7.00;;;3.13;;
31347;SDS011;21711;49.708;18.568;2023-07-20T01:39:04;5.55;;;2.90;;
31347;SDS011;21711;49.708;18.568;2023-07-20T01:41:34;5.80;;;3.08;;
31347;SDS011;21711;49.708;18.568;2023-07-20T01:44:03;5.03;;;2.85;;
31347;SDS011;21711;49.708;18.568;2023-07-20T01:46:30;6.95;;;2.83;;
31347;SDS011;21711;49.708;18.568;2023-07-20T01:48:58;4.90;;;3.00;;
31347;SDS011;21711;49.708;18.568;2023-07-20T01:51:25;3.80;;;2.50;;
31347;SDS011;21711;49.708;18.568;2023-07-20T01:53:53;7.18;;;2.67;;
31347;SDS011;21711;49.708;18.568;2023-07-20T01:56:21;4.35;;;2.55;;
31347;SDS011;21711;49.708;18.568;2023-07-20T01:58:49;4.88;;;2.55;;
31347;SDS011;21711;49.708;18.568;2023-07-20T02:01:16;3.95;;;2.38;;
31347;SDS011;21711;49.708;18.568;2023-07-20T02:03:43;3.90;;;2.58;;
31347;SDS011;21711;49.708;18.568;2023-07-20T02:06:11;5.10;;;2.28;;
31347;SDS011;21711;49.708;18.568;2023-07-20T02:08:38;9.55;;;2.40;;
31347;SDS011;21711;49.708;18.568;2023-07-20T02:11:06;6.55;;;2.03;;
31347;SDS011;21711;49.708;18.568;2023-07-20T02:13:33;3.55;;;1.98;;
31347;SDS011;21711;49.708;18.568;2023-07-20T02:16:00;5.15;;;2.35;;
31347;SDS011;21711;49.708;18.568;2023-07-20T02:18:28;4.65;;;2.17;;
31347;SDS011;21711;49.708;18.568;2023-07-20T02:20:55;4.57;;;2.05;;
31347;SDS011;21711;49.708;18.568;2023-07-20T02:23:22;4.47;;;1.77;;
31347;SDS011;21711;49.708;18.568;2023-07-20T02:25:50;4.65;;;2.08;;
31347;SDS011;21711;49.708;18.568;2023-07-20T02:28:17;3.67;;;2.10;;
31347;SDS011;21711;49.708;18.568;2023-07-20T02:30:44;4.88;;;1.75;;
31347;SDS011;21711;49.708;18.568;2023-07-20T02:33:13;4.60;;;1.92;;
31347;SDS011;21711;49.708;18.568;2023-07-20T02:35:40;3.75;;;1.77;;
31347;SDS011;21711;49.708;18.568;2023-07-20T02:38:07;3.70;;;1.92;;
31347;SDS011;21711;49.708;18.568;2023-07-20T02:40:37;4.85;;;1.75;;
31347;SDS011;21711;49.708;18.568;2023-07-20T02:43:04;2.25;;;1.55;;
31347;SDS011;21711;49.708;18.568;2023-07-20T02:45:32;4.13;;;1.50;;
31347;SDS011;21711;49.708;18.568;2023-07-20T02:47:59;3.72;;;1.70;;
31347;SDS011;21711;49.708;18.568;2023-07-20T02:50:27;5.57;;;2.17;;
31347;SDS011;21711;49.708;18.568;2023-07-20T02:52:54;2.10;;;1.48;;
31347;SDS011;21711;49.708;18.568;2023-07-20T02:55:22;4.20;;;2.00;;
31347;SDS011;21711;49.708;18.568;2023-07-20T02:57:49;4.90;;;2.10;;
31347;SDS011;21711;49.708;18.568;2023-07-20T03:00:17;2.65;;;1.55;;
31347;SDS011;21711;49.708;18.568;2023-07-20T03:02:46;3.92;;;1.58;;
31347;SDS011;21711;49.708;18.568;2023-07-20T03:05:19;4.60;;;1.90;;
31347;SDS011;21711;49.708;18.568;2023-07-20T03:07:47;4.25;;;1.50;;
31347;SDS011;21711;49.708;18.568;2023-07-20T03:10:14;3.13;;;1.75;;
31347;SDS011;21711;49.708;18.568;2023-07-20T03:12:41;3.05;;;1.50;;
31347;SDS011;21711;49.708;18.568;2023-07-20T03:15:09;2.88;;;1.67;;
31347;SDS011;21711;49.708;18.568;2023-07-20T03:17:37;2.85;;;1.48;;
31347;SDS011;21711;49.708;18.568;2023-07-20T03:20:04;2.85;;;1.42;;
31347;SDS011;21711;49.708;18.568;2023-07-20T03:22:35;3.80;;;1.38;;
31347;SDS011;21711;49.708;18.568;2023-07-20T03:25:03;3.65;;;1.90;;
31347;SDS011;21711;49.708;18.568;2023-07-20T03:27:31;3.20;;;1.58;;
31347;SDS011;21711;49.708;18.568;2023-07-20T03:30:00;6.97;;;2.00;;
31347;SDS011;21711;49.708;18.568;2023-07-20T03:32:28;4.35;;;1.60;;
31347;SDS011;21711;49.708;18.568;2023-07-20T03:34:55;2.88;;;1.65;;
31347;SDS011;21711;49.708;18.568;2023-07-20T03:37:22;4.65;;;1.50;;
31347;SDS011;21711;49.708;18.568;2023-07-20T03:39:50;3.65;;;1.10;;
31347;SDS011;21711;49.708;18.568;2023-07-20T03:42:17;4.50;;;1.40;;
31347;SDS011;21711;49.708;18.568;2023-07-20T03:44:44;2.70;;;1.60;;
31347;SDS011;21711;49.708;18.568;2023-07-20T03:47:12;4.03;;;1.30;;
31347;SDS011;21711;49.708;18.568;2023-07-20T03:49:39;4.55;;;1.45;;
31347;SDS011;21711;49.708;18.568;2023-07-20T03:52:07;3.13;;;1.42;;
31347;SDS011;21711;49.708;18.568;2023-07-20T03:54:34;2.78;;;1.40;;
31347;SDS011;21711;49.708;18.568;2023-07-20T03:57:01;3.03;;;1.35;;
31347;SDS011;21711;49.708;18.568;2023-07-20T03:59:29;4.53;;;1.30;;
31347;SDS011;21711;49.708;18.568;2023-07-20T04:01:56;2.20;;;1.40;;
31347;SDS011;21711;49.708;18.568;2023-07-20T04:04:24;6.55;;;1.77;;
31347;SDS011;21711;49.708;18.568;2023-07-20T04:06:51;3.85;;;1.38;;
31347;SDS011;21711;49.708;18.568;2023-07-20T04:09:19;3.72;;;1.23;;
31347;SDS011;21711;49.708;18.568;2023-07-20T04:11:46;2.95;;;1.30;;
31347;SDS011;21711;49.708;18.568;2023-07-20T04:14:13;2.53;;;1.25;;
31347;SDS011;21711;49.708;18.568;2023-07-20T04:16:40;4.72;;;1.40;;
31347;SDS011;21711;49.708;18.568;2023-07-20T04:19:08;2.88;;;1.33;;
31347;SDS011;21711;49.708;18.568;2023-07-20T04:21:39;2.25;;;1.33;;
31347;SDS011;21711;49.708;18.568;2023-07-20T04:24:08;3.90;;;1.60;;
31347;SDS011;21711;49.708;18.568;2023-07-20T04:26:36;4.28;;;1.60;;
31347;SDS011;21711;49.708;18.568;2023-07-20T04:29:04;6.43;;;1.35;;
31347;SDS011;21711;49.708;18.568;2023-07-20T04:31:37;4.75;;;1.60;;
31347;SDS011;21711;49.708;18.568;2023-07-20T04:34:04;2.22;;;1.25;;
31347;SDS011;21711;49.708;18.568;2023-07-20T04:36:34;3.87;;;1.30;;
31347;SDS011;21711;49.708;18.568;2023-07-20T04:39:02;1.98;;;1.30;;
31347;SDS011;21711;49.708;18.568;2023-07-20T04:41:42;1.58;;;1.20;;
31347;SDS011;21711;49.708;18.568;2023-07-20T04:44:10;1.92;;;1.30;;
31347;SDS011;21711;49.708;18.568;2023-07-20T04:46:37;2.90;;;1.60;;
31347;SDS011;21711;49.708;18.568;2023-07-20T04:49:06;4.10;;;1.75;;
31347;SDS011;21711;49.708;18.568;2023-07-20T04:51:38;3.72;;;1.50;;
31347;SDS011;21711;49.708;18.568;2023-07-20T04:54:05;2.85;;;1.35;;
31347;SDS011;21711;49.708;18.568;2023-07-20T04:59:06;3.67;;;1.60;;
31347;SDS011;21711;49.708;18.568;2023-07-20T05:01:33;2.15;;;1.48;;
31347;SDS011;21711;49.708;18.568;2023-07-20T05:04:01;3.35;;;1.58;;
31347;SDS011;21711;49.708;18.568;2023-07-20T05:06:29;1.70;;;1.05;;
31347;SDS011;21711;49.708;18.568;2023-07-20T05:08:56;2.95;;;1.50;;
31347;SDS011;21711;49.708;18.568;2023-07-20T05:11:24;2.08;;;1.42;;
31347;SDS011;21711;49.708;18.568;2023-07-20T05:13:51;2.47;;;1.25;;
31347;SDS011;21711;49.708;18.568;2023-07-20T05:16:18;2.40;;;1.50;;
31347;SDS011;21711;49.708;18.568;2023-07-20T05:18:46;4.45;;;1.77;;
31347;SDS011;21711;49.708;18.568;2023-07-20T05:21:14;5.40;;;1.75;;
31347;SDS011;21711;49.708;18.568;2023-07-20T05:23:41;6.05;;;1.55;;
31347;SDS011;21711;49.708;18.568;2023-07-20T05:26:08;2.33;;;1.27;;
31347;SDS011;21711;49.708;18.568;2023-07-20T05:28:36;3.55;;;1.85;;
31347;SDS011;21711;49.708;18.568;2023-07-20T05:31:03;5.68;;;1.60;;
31347;SDS011;21711;49.708;18.568;2023-07-20T05:33:31;2.45;;;1.40;;
31347;SDS011;21711;49.708;18.568;2023-07-20T05:35:58;3.20;;;1.40;;
31347;SDS011;21711;49.708;18.568;2023-07-20T05:38:25;2.45;;;1.52;;
31347;SDS011;21711;49.708;18.568;2023-07-20T05:40:58;2.00;;;1.23;;
31347;SDS011;21711;49.708;18.568;2023-07-20T05:43:28;2.83;;;1.38;;
31347;SDS011;21711;49.708;18.568;2023-07-20T05:45:56;2.80;;;1.55;;
31347;SDS011;21711;49.708;18.568;2023-07-20T05:48:24;4.80;;;1.45;;
31347;SDS011;21711;49.708;18.568;2023-07-20T05:50:51;2.13;;;1.10;;
31347;SDS011;21711;49.708;18.568;2023-07-20T05:53:18;1.88;;;1.38;;
31347;SDS011;21711;49.708;18.568;2023-07-20T05:55:51;2.90;;;1.80;;
31347;SDS011;21711;49.708;18.568;2023-07-20T05:58:20;2.35;;;1.42;;
31347;SDS011;21711;49.708;18.568;2023-07-20T06:00:48;3.58;;;1.70;;
31347;SDS011;21711;49.708;18.568;2023-07-20T06:03:17;3.72;;;2.03;;
31347;SDS011;21711;49.708;18.568;2023-07-20T06:05:45;4.45;;;1.52;;
31347;SDS011;21711;49.708;18.568;2023-07-20T06:08:12;3.97;;;1.40;;
31347;SDS011;21711;49.708;18.568;2023-07-20T06:10:40;2.30;;;1.38;;
31347;SDS011;21711;49.708;18.568;2023-07-20T06:13:11;4.10;;;1.55;;
31347;SDS011;21711;49.708;18.568;2023-07-20T06:15:38;3.42;;;1.55;;
31347;SDS011;21711;49.708;18.568;2023-07-20T06:18:07;3.40;;;1.30;;
31347;SDS011;21711;49.708;18.568;2023-07-20T06:20:35;5.07;;;1.40;;
31347;SDS011;21711;49.708;18.568;2023-07-20T06:23:02;2.80;;;1.83;;
31347;SDS011;21711;49.708;18.568;2023-07-20T06:25:29;2.15;;;1.48;;
31347;SDS011;21711;49.708;18.568;2023-07-20T06:27:57;4.43;;;1.83;;
31347;SDS011;21711;49.708;18.568;2023-07-20T06:30:24;1.98;;;1.40;;
31347;SDS011;21711;49.708;18.568;2023-07-20T06:32:52;2.83;;;1.27;;
31347;SDS011;21711;49.708;18.568;2023-07-20T06:35:19;4.13;;;1.60;;
31347;SDS011;21711;49.708;18.568;2023-07-20T06:37:47;1.90;;;1.50;;
31347;SDS011;21711;49.708;18.568;2023-07-20T06:40:14;3.60;;;1.52;;
31347;SDS011;21711;49.708;18.568;2023-07-20T06:42:45;6.20;;;3.13;;
31347;SDS011;21711;49.708;18.568;2023-07-20T06:45:15;1.90;;;1.50;;
31347;SDS011;21711;49.708;18.568;2023-07-20T06:47:42;1.58;;;1.40;;
31347;SDS011;21711;49.708;18.568;2023-07-20T06:50:10;2.75;;;1.42;;
31347;SDS011;21711;49.708;18.568;2023-07-20T06:52:42;2.65;;;1.67;;
31347;SDS011;21711;49.708;18.568;2023-07-20T06:55:10;2.78;;;1.67;;
31347;SDS011;21711;49.708;18.568;2023-07-20T06:57:37;2.33;;;1.67;;
31347;SDS011;21711;49.708;18.568;2023-07-20T07:00:05;4.30;;;1.27;;
31347;SDS011;21711;49.708;18.568;2023-07-20T07:02:33;2.53;;;1.70;;
31347;SDS011;21711;49.708;18.568;2023-07-20T07:05:02;3.40;;;1.30;;
31347;SDS011;21711;49.708;18.568;2023-07-20T07:07:46;2.40;;;1.58;;
31347;SDS011;21711;49.708;18.568;2023-07-20T07:10:13;2.47;;;1.65;;
31347;SDS011;21711;49.708;18.568;2023-07-20T07:12:41;2.30;;;1.60;;
31347;SDS011;21711;49.708;18.568;2023-07-20T07:15:08;3.33;;;1.98;;
31347;SDS011;21711;49.708;18.568;2023-07-20T07:17:37;2.35;;;1.70;;
31347;SDS011;21711;49.708;18.568;2023-07-20T07:20:05;1.90;;;1.50;;
31347;SDS011;21711;49.708;18.568;2023-07-20T07:22:37;4.05;;;1.63;;
31347;SDS011;21711;49.708;18.568;2023-07-20T07:25:04;3.15;;;1.67;;
31347;SDS011;21711;49.708;18.568;2023-07-20T07:27:34;2.95;;;1.90;;
31347;SDS011;21711;49.708;18.568;2023-07-20T07:30:02;3.17;;;1.80;;
31347;SDS011;21711;49.708;18.568;2023-07-20T07:32:31;2.33;;;1.50;;
31347;SDS011;21711;49.708;18.568;2023-07-20T07:34:58;2.30;;;1.67;;
31347;SDS011;21711;49.708;18.568;2023-07-20T07:37:27;3.20;;;1.83;;
31347;SDS011;21711;49.708;18.568;2023-07-20T07:42:24;3.17;;;1.27;;
31347;SDS011;21711;49.708;18.568;2023-07-20T07:44:51;4.18;;;1.45;;
31347;SDS011;21711;49.708;18.568;2023-07-20T07:47:18;4.55;;;1.90;;
31347;SDS011;21711;49.708;18.568;2023-07-20T07:49:45;3.25;;;1.38;;
31347;SDS011;21711;49.708;18.568;2023-07-20T07:52:13;2.15;;;1.60;;
31347;SDS011;21711;49.708;18.568;2023-07-20T07:54:40;2.28;;;1.50;;
31347;SDS011;21711;49.708;18.568;2023-07-20T07:57:08;2.13;;;1.40;;
31347;SDS011;21711;49.708;18.568;2023-07-20T07:59:35;1.70;;;1.40;;
31347;SDS011;21711;49.708;18.568;2023-07-20T08:02:04;2.53;;;1.50;;
31347;SDS011;21711;49.708;18.568;2023-07-20T08:04:32;3.70;;;1.50;;
31347;SDS011;21711;49.708;18.568;2023-07-20T08:06:59;2.40;;;1.73;;
31347;SDS011;21711;49.708;18.568;2023-07-20T08:11:56;2.90;;;1.95;;
31347;SDS011;21711;49.708;18.568;2023-07-20T08:14:23;2.40;;;1.80;;
31347;SDS011;21711;49.708;18.568;2023-07-20T08:16:51;3.35;;;2.40;;
31347;SDS011;21711;49.708;18.568;2023-07-20T08:19:19;1.60;;;1.50;;
31347;SDS011;21711;49.708;18.568;2023-07-20T08:21:47;2.65;;;1.60;;
31347;SDS011;21711;49.708;18.568;2023-07-20T08:24:15;2.30;;;1.95;;
31347;SDS011;21711;49.708;18.568;2023-07-20T08:26:42;1.80;;;1.70;;
31347;SDS011;21711;49.708;18.568;2023-07-20T08:29:09;3.65;;;1.95;;
31347;SDS011;21711;49.708;18.568;2023-07-20T08:31:37;3.53;;;1.75;;
31347;SDS011;21711;49.708;18.568;2023-07-20T08:34:04;4.43;;;1.60;;
31347;SDS011;21711;49.708;18.568;2023-07-20T08:36:45;2.00;;;1.50;;
31347;SDS011;21711;49.708;18.568;2023-07-20T08:39:13;2.35;;;1.70;;
31347;SDS011;21711;49.708;18.568;2023-07-20T08:41:41;3.22;;;1.92;;
31347;SDS011;21711;49.708;18.568;2023-07-20T08:44:13;5.65;;;2.05;;
31347;SDS011;21711;49.708;18.568;2023-07-20T08:46:41;6.35;;;2.20;;
31347;SDS011;21711;49.708;18.568;2023-07-20T08:49:09;2.08;;;1.73;;
31347;SDS011;21711;49.708;18.568;2023-07-20T08:54:05;4.82;;;2.22;;
31347;SDS011;21711;49.708;18.568;2023-07-20T08:56:34;4.93;;;2.00;;
31347;SDS011;21711;49.708;18.568;2023-07-20T08:59:01;3.63;;;1.70;;
31347;SDS011;21711;49.708;18.568;2023-07-20T09:01:29;2.42;;;2.17;;
31347;SDS011;21711;49.708;18.568;2023-07-20T09:03:57;3.83;;;2.17;;
31347;SDS011;21711;49.708;18.568;2023-07-20T09:06:24;3.55;;;2.05;;
31347;SDS011;21711;49.708;18.568;2023-07-20T09:08:53;3.15;;;2.10;;
31347;SDS011;21711;49.708;18.568;2023-07-20T09:11:21;2.65;;;2.10;;
31347;SDS011;21711;49.708;18.568;2023-07-20T09:13:48;2.83;;;2.05;;
31347;SDS011;21711;49.708;18.568;2023-07-20T09:16:54;3.78;;;1.92;;
31347;SDS011;21711;49.708;18.568;2023-07-20T09:19:22;3.95;;;2.08;;
31347;SDS011;21711;49.708;18.568;2023-07-20T09:21:50;3.15;;;2.13;;
31347;SDS011;21711;49.708;18.568;2023-07-20T09:24:19;3.55;;;2.40;;
31347;SDS011;21711;49.708;18.568;2023-07-20T09:26:47;4.63;;;2.08;;
31347;SDS011;21711;49.708;18.568;2023-07-20T09:29:17;4.63;;;2.10;;
31347;SDS011;21711;49.708;18.568;2023-07-20T09:34:51;3.05;;;2.45;;
31347;SDS011;21711;49.708;18.568;2023-07-20T09:37:22;2.70;;;1.98;;
31347;SDS011;21711;49.708;18.568;2023-07-20T09:39:53;3.55;;;2.22;;
31347;SDS011;21711;49.708;18.568;2023-07-20T09:42:23;7.80;;;2.60;;
31347;SDS011;21711;49.708;18.568;2023-07-20T09:44:56;2.88;;;2.22;;
31347;SDS011;21711;49.708;18.568;2023-07-20T09:47:24;3.63;;;2.10;;
31347;SDS011;21711;49.708;18.568;2023-07-20T09:49:58;6.45;;;2.30;;
31347;SDS011;21711;49.708;18.568;2023-07-20T09:52:29;4.40;;;2.22;;
31347;SDS011;21711;49.708;18.568;2023-07-20T09:55:00;5.63;;;2.28;;
31347;SDS011;21711;49.708;18.568;2023-07-20T09:57:29;5.10;;;2.22;;
31347;SDS011;21711;49.708;18.568;2023-07-20T09:59:59;3.47;;;2.33;;
31347;SDS011;21711;49.708;18.568;2023-07-20T10:02:32;6.07;;;2.75;;
31347;SDS011;21711;49.708;18.568;2023-07-20T10:05:01;5.18;;;2.92;;
31347;SDS011;21711;49.708;18.568;2023-07-20T10:07:30;3.00;;;2.50;;
31347;SDS011;21711;49.708;18.568;2023-07-20T10:09:59;3.23;;;2.50;;
31347;SDS011;21711;49.708;18.568;2023-07-20T10:12:29;4.45;;;2.72;;
31347;SDS011;21711;49.708;18.568;2023-07-20T10:15:11;5.82;;;2.85;;
31347;SDS011;21711;49.708;18.568;2023-07-20T10:18:09;4.25;;;2.50;;
31347;SDS011;21711;49.708;18.568;2023-07-20T10:21:18;7.15;;;2.67;;
31347;SDS011;21711;49.708;18.568;2023-07-20T10:23:52;4.70;;;2.60;;
31347;SDS011;21711;49.708;18.568;2023-07-20T10:26:24;4.30;;;2.67;;
31347;SDS011;21711;49.708;18.568;2023-07-20T10:28:53;5.57;;;2.90;;
31347;SDS011;21711;49.708;18.568;2023-07-20T10:31:22;3.55;;;2.60;;
31347;SDS011;21711;49.708;18.568;2023-07-20T10:33:51;4.43;;;2.83;;
31347;SDS011;21711;49.708;18.568;2023-07-20T10:36:25;5.30;;;3.17;;
31347;SDS011;21711;49.708;18.568;2023-07-20T10:38:57;6.90;;;3.03;;
31347;SDS011;21711;49.708;18.568;2023-07-20T10:41:28;6.20;;;2.40;;
31347;SDS011;21711;49.708;18.568;2023-07-20T10:44:03;4.05;;;2.40;;
31347;SDS011;21711;49.708;18.568;2023-07-20T10:46:34;3.30;;;2.05;;
31347;SDS011;21711;49.708;18.568;2023-07-20T10:49:12;4.68;;;2.13;;
31347;SDS011;21711;49.708;18.568;2023-07-20T10:56:45;4.43;;;2.30;;
31347;SDS011;21711;49.708;18.568;2023-07-20T10:59:57;4.65;;;2.00;;
31347;SDS011;21711;49.708;18.568;2023-07-20T11:02:08;4.88;;;2.20;;
31347;SDS011;21711;49.708;18.568;2023-07-20T11:07:14;4.07;;;2.55;;
31347;SDS011;21711;49.708;18.568;2023-07-20T11:09:43;3.95;;;2.88;;
31347;SDS011;21711;49.708;18.568;2023-07-20T11:12:18;6.93;;;2.58;;
31347;SDS011;21711;49.708;18.568;2023-07-20T11:14:55;5.25;;;3.00;;
31347;SDS011;21711;49.708;18.568;2023-07-20T11:17:30;6.82;;;2.30;;
31347;SDS011;21711;49.708;18.568;2023-07-20T11:20:00;4.10;;;2.20;;
31347;SDS011;21711;49.708;18.568;2023-07-20T11:22:32;3.92;;;2.10;;
31347;SDS011;21711;49.708;18.568;2023-07-20T11:25:00;5.03;;;2.10;;
31347;SDS011;21711;49.708;18.568;2023-07-20T11:27:27;3.60;;;1.88;;
31347;SDS011;21711;49.708;18.568;2023-07-20T11:29:56;3.50;;;2.08;;
31347;SDS011;21711;49.708;18.568;2023-07-20T11:32:24;4.82;;;2.22;;
31347;SDS011;21711;49.708;18.568;2023-07-20T11:34:51;3.13;;;2.03;;
31347;SDS011;21711;49.708;18.568;2023-07-20T11:37:18;6.28;;;2.08;;
31347;SDS011;21711;49.708;18.568;2023-07-20T11:39:46;3.40;;;2.15;;
31347;SDS011;21711;49.708;18.568;2023-07-20T11:42:14;2.60;;;1.80;;
31347;SDS011;21711;49.708;18.568;2023-07-20T11:44:44;4.70;;;1.95;;
31347;SDS011;21711;49.708;18.568;2023-07-20T11:47:12;2.05;;;1.60;;
31347;SDS011;21711;49.708;18.568;2023-07-20T11:49:41;2.80;;;1.63;;
31347;SDS011;21711;49.708;18.568;2023-07-20T11:52:10;2.42;;;1.40;;
31347;SDS011;21711;49.708;18.568;2023-07-20T11:54:43;1.88;;;1.52;;
31347;SDS011;21711;49.708;18.568;2023-07-20T11:57:18;3.08;;;1.45;;
31347;SDS011;21711;49.708;18.568;2023-07-20T12:00:03;2.05;;;1.20;;
31347;SDS011;21711;49.708;18.568;2023-07-20T12:02:35;2.35;;;1.27;;
31347;SDS011;21711;49.708;18.568;2023-07-20T12:05:07;5.15;;;1.48;;
31347;SDS011;21711;49.708;18.568;2023-07-20T12:07:35;1.70;;;1.30;;
31347;SDS011;21711;49.708;18.568;2023-07-20T12:12:41;4.95;;;1.52;;
31347;SDS011;21711;49.708;18.568;2023-07-20T12:15:17;5.05;;;1.40;;
31347;SDS011;21711;49.708;18.568;2023-07-20T12:17:56;2.47;;;1.25;;
31347;SDS011;21711;49.708;18.568;2023-07-20T12:23:00;2.95;;;1.67;;
31347;SDS011;21711;49.708;18.568;2023-07-20T12:25:40;4.03;;;1.40;;
31347;SDS011;21711;49.708;18.568;2023-07-20T12:28:10;3.67;;;1.40;;
31347;SDS011;21711;49.708;18.568;2023-07-20T12:30:41;2.67;;;1.45;;
31347;SDS011;21711;49.708;18.568;2023-07-20T12:33:10;2.35;;;1.42;;
31347;SDS011;21711;49.708;18.568;2023-07-20T12:35:40;3.30;;;1.30;;
31347;SDS011;21711;49.708;18.568;2023-07-20T12:38:09;3.38;;;1.33;;
31347;SDS011;21711;49.708;18.568;2023-07-20T12:40:37;3.25;;;1.67;;
31347;SDS011;21711;49.708;18.568;2023-07-20T12:43:04;4.22;;;1.80;;
31347;SDS011;21711;49.708;18.568;2023-07-20T12:45:33;4.85;;;1.73;;
31347;SDS011;21711;49.708;18.568;2023-07-20T12:48:00;3.60;;;2.05;;
31347;SDS011;21711;49.708;18.568;2023-07-20T12:50:27;3.47;;;1.73;;
31347;SDS011;21711;49.708;18.568;2023-07-20T12:52:55;3.15;;;1.67;;
31347;SDS011;21711;49.708;18.568;2023-07-20T12:55:22;2.97;;;1.70;;
31347;SDS011;21711;49.708;18.568;2023-07-20T12:57:50;4.63;;;1.58;;
31347;SDS011;21711;49.708;18.568;2023-07-20T13:00:17;4.43;;;2.08;;
31347;SDS011;21711;49.708;18.568;2023-07-20T13:02:45;2.63;;;1.75;;
31347;SDS011;21711;49.708;18.568;2023-07-20T13:05:13;6.00;;;1.80;;
31347;SDS011;21711;49.708;18.568;2023-07-20T13:07:40;2.60;;;1.73;;
31347;SDS011;21711;49.708;18.568;2023-07-20T13:10:11;2.60;;;1.75;;
31347;SDS011;21711;49.708;18.568;2023-07-20T13:12:39;2.70;;;1.95;;
31347;SDS011;21711;49.708;18.568;2023-07-20T13:15:07;4.13;;;2.15;;
31347;SDS011;21711;49.708;18.568;2023-07-20T13:17:38;2.53;;;1.70;;
31347;SDS011;21711;49.708;18.568;2023-07-20T13:20:06;6.93;;;2.08;;
31347;SDS011;21711;49.708;18.568;2023-07-20T13:22:37;2.35;;;1.95;;
31347;SDS011;21711;49.708;18.568;2023-07-20T13:25:05;4.32;;;2.30;;
31347;SDS011;21711;49.708;18.568;2023-07-20T13:27:34;3.42;;;1.63;;
31347;SDS011;21711;49.708;18.568;2023-07-20T13:32:36;3.53;;;2.22;;
31347;SDS011;21711;49.708;18.568;2023-07-20T13:35:10;22.58;;;2.45;;
31347;SDS011;21711;49.708;18.568;2023-07-20T13:37:38;4.38;;;1.92;;
31347;SDS011;21711;49.708;18.568;2023-07-20T13:40:06;4.22;;;2.00;;
31347;SDS011;21711;49.708;18.568;2023-07-20T13:42:40;5.85;;;1.95;;
31347;SDS011;21711;49.708;18.568;2023-07-20T13:45:07;3.55;;;2.05;;
31347;SDS011;21711;49.708;18.568;2023-07-20T13:47:35;2.80;;;2.05;;
31347;SDS011;21711;49.708;18.568;2023-07-20T13:50:03;6.00;;;2.13;;
31347;SDS011;21711;49.708;18.568;2023-07-20T13:52:31;3.30;;;2.15;;
31347;SDS011;21711;49.708;18.568;2023-07-20T13:57:31;9.32;;;2.75;;
31347;SDS011;21711;49.708;18.568;2023-07-20T14:00:01;3.33;;;2.25;;
31347;SDS011;21711;49.708;18.568;2023-07-20T14:02:39;7.78;;;2.70;;
31347;SDS011;21711;49.708;18.568;2023-07-20T14:10:06;2.20;;;1.73;;
31347;SDS011;21711;49.708;18.568;2023-07-20T14:12:37;2.58;;;2.13;;
31347;SDS011;21711;49.708;18.568;2023-07-20T14:15:04;3.30;;;2.08;;
31347;SDS011;21711;49.708;18.568;2023-07-20T14:17:33;3.42;;;1.77;;
31347;SDS011;21711;49.708;18.568;2023-07-20T14:20:00;3.05;;;1.88;;
31347;SDS011;21711;49.708;18.568;2023-07-20T14:22:32;5.93;;;1.73;;
31347;SDS011;21711;49.708;18.568;2023-07-20T14:24:59;3.80;;;2.20;;
31347;SDS011;21711;49.708;18.568;2023-07-20T14:27:26;3.55;;;2.78;;
31347;SDS011;21711;49.708;18.568;2023-07-20T14:29:54;4.47;;;1.95;;
31347;SDS011;21711;49.708;18.568;2023-07-20T14:32:22;5.93;;;2.08;;
31347;SDS011;21711;49.708;18.568;2023-07-20T14:34:49;3.85;;;2.08;;
31347;SDS011;21711;49.708;18.568;2023-07-20T14:39:47;5.20;;;1.98;;
31347;SDS011;21711;49.708;18.568;2023-07-20T14:42:14;2.28;;;2.08;;
31347;SDS011;21711;49.708;18.568;2023-07-20T14:44:42;2.40;;;2.00;;
31347;SDS011;21711;49.708;18.568;2023-07-20T14:47:10;3.38;;;1.88;;
31347;SDS011;21711;49.708;18.568;2023-07-20T14:49:40;2.67;;;1.70;;
31347;SDS011;21711;49.708;18.568;2023-07-20T14:52:08;3.67;;;1.50;;
31347;SDS011;21711;49.708;18.568;2023-07-20T14:54:39;1.73;;;1.00;;
31347;SDS011;21711;49.708;18.568;2023-07-20T14:57:06;2.63;;;1.23;;
31347;SDS011;21711;49.708;18.568;2023-07-20T14:59:41;1.88;;;1.40;;
31347;SDS011;21711;49.708;18.568;2023-07-20T15:02:10;6.88;;;1.70;;
31347;SDS011;21711;49.708;18.568;2023-07-20T15:04:45;1.63;;;1.25;;
31347;SDS011;21711;49.708;18.568;2023-07-20T15:07:17;2.08;;;1.30;;
31347;SDS011;21711;49.708;18.568;2023-07-20T15:09:47;4.47;;;1.20;;
31347;SDS011;21711;49.708;18.568;2023-07-20T15:12:15;3.38;;;1.58;;
31347;SDS011;21711;49.708;18.568;2023-07-20T15:14:43;4.93;;;1.42;;
31347;SDS011;21711;49.708;18.568;2023-07-20T15:17:16;3.10;;;1.65;;
31347;SDS011;21711;49.708;18.568;2023-07-20T15:19:43;3.28;;;1.35;;
31347;SDS011;21711;49.708;18.568;2023-07-20T15:22:10;3.45;;;1.20;;
31347;SDS011;21711;49.708;18.568;2023-07-20T15:24:38;1.60;;;1.30;;
31347;SDS011;21711;49.708;18.568;2023-07-20T15:27:05;2.55;;;1.50;;
31347;SDS011;21711;49.708;18.568;2023-07-20T15:29:34;1.83;;;1.50;;
31347;SDS011;21711;49.708;18.568;2023-07-20T15:32:02;5.22;;;1.30;;